sensor_id;sensor_type;location;lat;lon;timestamp;P1;durP1;ratioP1;P2;durP2;ratioP2
16484;SDS011;8353;47.856;12.344;2024-03-02T00:00:02;13.27;;;9.30;;
16484;SDS011;8353;47.856;12.344;2024-03-02T00:02:40;11.87;;;7.33;;
16484;SDS011;8353;47.856;12.344;2024-03-02T00:05:11;8.67;;;6.77;;
16484;SDS011;8353;47.856;12.344;2024-03-02T00:07:43;16.73;;;12.43;;
16484;SDS011;8353;47.856;12.344;2024-03-02T00:10:16;10.57;;;8.03;;
16484;SDS011;8353;47.856;12.344;2024-03-02T00:12:50;12.83;;;9.20;;
16484;SDS011;8353;47.856;12.344;2024-03-02T00:15:31;11.93;;;8.33;;
16484;SDS011;8353;47.856;12.344;2024-03-02T00:18:10;15.73;;;10.33;;
16484;SDS011;8353;47.856;12.344;2024-03-02T00:20:42;10.77;;;7.40;;
16484;SDS011;8353;47.856;12.344;2024-03-02T00:23:13;11.93;;;9.43;;
16484;SDS011;8353;47.856;12.344;2024-03-02T00:25:46;16.30;;;10.93;;
16484;SDS011;8353;47.856;12.344;2024-03-02T00:28:20;8.40;;;5.70;;
16484;SDS011;8353;47.856;12.344;2024-03-02T00:30:54;15.67;;;11.33;;
16484;SDS011;8353;47.856;12.344;2024-03-02T00:33:27;11.60;;;8.27;;
16484;SDS011;8353;47.856;12.344;2024-03-02T00:36:02;10.40;;;6.97;;
16484;SDS011;8353;47.856;12.344;2024-03-02T00:38:33;6.73;;;5.33;;
16484;SDS011;8353;47.856;12.344;2024-03-02T00:41:04;10.63;;;8.20;;
16484;SDS011;8353;47.856;12.344;2024-03-02T00:43:44;5.97;;;4.80;;
16484;SDS011;8353;47.856;12.344;2024-03-02T00:46:18;5.87;;;4.47;;
16484;SDS011;8353;47.856;12.344;2024-03-02T00:48:53;11.90;;;8.13;;
16484;SDS011;8353;47.856;12.344;2024-03-02T00:51:24;11.87;;;7.57;;
16484;SDS011;8353;47.856;12.344;2024-03-02T00:53:57;10.50;;;6.80;;
16484;SDS011;8353;47.856;12.344;2024-03-02T00:56:28;13.27;;;9.63;;
16484;SDS011;8353;47.856;12.344;2024-03-02T00:59:00;15.03;;;10.80;;
16484;SDS011;8353;47.856;12.344;2024-03-02T01:01:31;10.90;;;8.37;;
16484;SDS011;8353;47.856;12.344;2024-03-02T01:04:01;11.73;;;8.77;;
16484;SDS011;8353;47.856;12.344;2024-03-02T01:06:34;17.37;;;11.60;;
16484;SDS011;8353;47.856;12.344;2024-03-02T01:09:05;19.77;;;14.03;;
16484;SDS011;8353;47.856;12.344;2024-03-02T01:11:35;11.23;;;7.20;;
16484;SDS011;8353;47.856;12.344;2024-03-02T01:14:07;17.57;;;12.17;;
16484;SDS011;8353;47.856;12.344;2024-03-02T01:16:37;14.40;;;11.07;;
16484;SDS011;8353;47.856;12.344;2024-03-02T01:19:07;10.40;;;7.67;;
16484;SDS011;8353;47.856;12.344;2024-03-02T01:21:38;15.87;;;11.37;;
16484;SDS011;8353;47.856;12.344;2024-03-02T01:24:09;13.37;;;9.00;;
16484;SDS011;8353;47.856;12.344;2024-03-02T01:26:39;25.03;;;15.07;;
16484;SDS011;8353;47.856;12.344;2024-03-02T01:29:10;22.33;;;15.13;;
16484;SDS011;8353;47.856;12.344;2024-03-02T01:31:41;32.00;;;22.17;;
16484;SDS011;8353;47.856;12.344;2024-03-02T01:34:12;32.40;;;21.60;;
16484;SDS011;8353;47.856;12.344;2024-03-02T01:36:42;25.03;;;16.93;;
16484;SDS011;8353;47.856;12.344;2024-03-02T01:39:13;13.23;;;10.03;;
16484;SDS011;8353;47.856;12.344;2024-03-02T01:41:44;22.73;;;15.23;;
16484;SDS011;8353;47.856;12.344;2024-03-02T01:44:15;28.50;;;19.43;;
16484;SDS011;8353;47.856;12.344;2024-03-02T01:46:46;30.33;;;21.03;;
16484;SDS011;8353;47.856;12.344;2024-03-02T01:49:16;34.77;;;21.97;;
16484;SDS011;8353;47.856;12.344;2024-03-02T01:51:47;34.07;;;22.07;;
16484;SDS011;8353;47.856;12.344;2024-03-02T01:54:18;21.23;;;14.60;;
16484;SDS011;8353;47.856;12.344;2024-03-02T01:56:48;37.93;;;24.40;;
16484;SDS011;8353;47.856;12.344;2024-03-02T01:59:20;38.90;;;24.43;;
16484;SDS011;8353;47.856;12.344;2024-03-02T02:01:50;35.33;;;22.47;;
16484;SDS011;8353;47.856;12.344;2024-03-02T02:04:20;26.13;;;17.30;;
16484;SDS011;8353;47.856;12.344;2024-03-02T02:06:55;15.00;;;10.73;;
16484;SDS011;8353;47.856;12.344;2024-03-02T02:09:26;31.43;;;20.80;;
16484;SDS011;8353;47.856;12.344;2024-03-02T02:11:56;26.63;;;19.30;;
16484;SDS011;8353;47.856;12.344;2024-03-02T02:14:28;26.97;;;18.73;;
16484;SDS011;8353;47.856;12.344;2024-03-02T02:16:58;22.60;;;14.73;;
16484;SDS011;8353;47.856;12.344;2024-03-02T02:19:28;19.83;;;14.60;;
16484;SDS011;8353;47.856;12.344;2024-03-02T02:22:00;20.70;;;15.20;;
16484;SDS011;8353;47.856;12.344;2024-03-02T02:24:30;16.73;;;12.07;;
16484;SDS011;8353;47.856;12.344;2024-03-02T02:27:00;34.10;;;21.33;;
16484;SDS011;8353;47.856;12.344;2024-03-02T02:29:31;33.20;;;22.10;;
16484;SDS011;8353;47.856;12.344;2024-03-02T02:32:01;31.47;;;20.00;;
16484;SDS011;8353;47.856;12.344;2024-03-02T02:34:32;34.57;;;22.33;;
16484;SDS011;8353;47.856;12.344;2024-03-02T02:37:04;16.43;;;11.93;;
16484;SDS011;8353;47.856;12.344;2024-03-02T02:39:35;30.67;;;19.20;;
16484;SDS011;8353;47.856;12.344;2024-03-02T02:42:07;26.47;;;18.97;;
16484;SDS011;8353;47.856;12.344;2024-03-02T02:44:39;17.93;;;12.57;;
16484;SDS011;8353;47.856;12.344;2024-03-02T02:47:10;13.83;;;10.50;;
16484;SDS011;8353;47.856;12.344;2024-03-02T02:49:40;18.07;;;11.87;;
16484;SDS011;8353;47.856;12.344;2024-03-02T02:52:12;23.80;;;14.77;;
16484;SDS011;8353;47.856;12.344;2024-03-02T02:54:42;24.60;;;15.47;;
16484;SDS011;8353;47.856;12.344;2024-03-02T02:57:12;14.03;;;10.60;;
16484;SDS011;8353;47.856;12.344;2024-03-02T02:59:42;18.80;;;12.73;;
16484;SDS011;8353;47.856;12.344;2024-03-02T03:02:12;8.07;;;6.07;;
16484;SDS011;8353;47.856;12.344;2024-03-02T03:04:42;25.23;;;16.67;;
16484;SDS011;8353;47.856;12.344;2024-03-02T03:07:14;14.47;;;9.93;;
16484;SDS011;8353;47.856;12.344;2024-03-02T03:09:44;23.17;;;14.83;;
16484;SDS011;8353;47.856;12.344;2024-03-02T03:12:15;28.47;;;17.90;;
16484;SDS011;8353;47.856;12.344;2024-03-02T03:14:45;28.70;;;18.27;;
16484;SDS011;8353;47.856;12.344;2024-03-02T03:17:16;26.73;;;16.50;;
16484;SDS011;8353;47.856;12.344;2024-03-02T03:19:47;25.53;;;16.33;;
16484;SDS011;8353;47.856;12.344;2024-03-02T03:22:19;12.00;;;8.33;;
16484;SDS011;8353;47.856;12.344;2024-03-02T03:24:50;19.67;;;13.63;;
16484;SDS011;8353;47.856;12.344;2024-03-02T03:27:21;12.23;;;9.00;;
16484;SDS011;8353;47.856;12.344;2024-03-02T03:29:51;18.23;;;12.90;;
16484;SDS011;8353;47.856;12.344;2024-03-02T03:32:23;8.00;;;5.47;;
16484;SDS011;8353;47.856;12.344;2024-03-02T03:34:53;7.53;;;6.03;;
16484;SDS011;8353;47.856;12.344;2024-03-02T03:37:25;19.70;;;13.20;;
16484;SDS011;8353;47.856;12.344;2024-03-02T03:40:01;18.07;;;12.87;;
16484;SDS011;8353;47.856;12.344;2024-03-02T03:42:36;19.47;;;13.40;;
16484;SDS011;8353;47.856;12.344;2024-03-02T03:45:07;15.97;;;10.57;;
16484;SDS011;8353;47.856;12.344;2024-03-02T03:47:38;11.03;;;8.13;;
16484;SDS011;8353;47.856;12.344;2024-03-02T03:50:09;6.63;;;4.70;;
16484;SDS011;8353;47.856;12.344;2024-03-02T03:52:41;10.03;;;6.60;;
16484;SDS011;8353;47.856;12.344;2024-03-02T03:55:13;6.77;;;5.20;;
16484;SDS011;8353;47.856;12.344;2024-03-02T03:57:43;10.80;;;6.37;;
16484;SDS011;8353;47.856;12.344;2024-03-02T04:00:13;6.67;;;5.13;;
16484;SDS011;8353;47.856;12.344;2024-03-02T04:02:47;29.47;;;17.73;;
16484;SDS011;8353;47.856;12.344;2024-03-02T04:05:17;21.03;;;14.30;;
16484;SDS011;8353;47.856;12.344;2024-03-02T04:07:50;9.60;;;7.73;;
16484;SDS011;8353;47.856;12.344;2024-03-02T04:10:22;9.37;;;7.53;;
16484;SDS011;8353;47.856;12.344;2024-03-02T04:12:56;9.37;;;6.30;;
16484;SDS011;8353;47.856;12.344;2024-03-02T04:15:26;9.60;;;7.30;;
16484;SDS011;8353;47.856;12.344;2024-03-02T04:17:57;10.17;;;7.80;;
16484;SDS011;8353;47.856;12.344;2024-03-02T04:20:27;8.63;;;6.33;;
16484;SDS011;8353;47.856;12.344;2024-03-02T04:23:00;6.60;;;5.13;;
16484;SDS011;8353;47.856;12.344;2024-03-02T04:25:30;13.17;;;9.30;;
16484;SDS011;8353;47.856;12.344;2024-03-02T04:28:00;17.23;;;12.10;;
16484;SDS011;8353;47.856;12.344;2024-03-02T04:30:31;14.87;;;9.57;;
16484;SDS011;8353;47.856;12.344;2024-03-02T04:33:01;16.67;;;10.97;;
16484;SDS011;8353;47.856;12.344;2024-03-02T04:35:32;23.73;;;15.23;;
16484;SDS011;8353;47.856;12.344;2024-03-02T04:38:03;11.30;;;7.50;;
16484;SDS011;8353;47.856;12.344;2024-03-02T04:40:34;8.37;;;6.20;;
16484;SDS011;8353;47.856;12.344;2024-03-02T04:43:04;9.57;;;6.70;;
16484;SDS011;8353;47.856;12.344;2024-03-02T04:45:34;9.90;;;7.60;;
16484;SDS011;8353;47.856;12.344;2024-03-02T04:48:11;11.57;;;8.20;;
16484;SDS011;8353;47.856;12.344;2024-03-02T04:50:43;11.00;;;6.70;;
16484;SDS011;8353;47.856;12.344;2024-03-02T04:53:15;8.83;;;6.53;;
16484;SDS011;8353;47.856;12.344;2024-03-02T04:55:45;11.87;;;9.03;;
16484;SDS011;8353;47.856;12.344;2024-03-02T04:58:38;11.40;;;8.37;;
16484;SDS011;8353;47.856;12.344;2024-03-02T05:01:08;7.93;;;5.97;;
16484;SDS011;8353;47.856;12.344;2024-03-02T05:03:39;12.27;;;10.97;;
16484;SDS011;8353;47.856;12.344;2024-03-02T05:06:10;15.90;;;11.37;;
16484;SDS011;8353;47.856;12.344;2024-03-02T05:08:42;9.83;;;7.40;;
16484;SDS011;8353;47.856;12.344;2024-03-02T05:11:13;8.53;;;6.63;;
16484;SDS011;8353;47.856;12.344;2024-03-02T05:14:17;14.90;;;11.23;;
16484;SDS011;8353;47.856;12.344;2024-03-02T05:16:48;8.23;;;6.87;;
16484;SDS011;8353;47.856;12.344;2024-03-02T05:19:18;12.57;;;9.00;;
16484;SDS011;8353;47.856;12.344;2024-03-02T05:21:48;12.47;;;8.83;;
16484;SDS011;8353;47.856;12.344;2024-03-02T05:24:21;10.00;;;7.60;;
16484;SDS011;8353;47.856;12.344;2024-03-02T05:26:51;10.20;;;7.57;;
16484;SDS011;8353;47.856;12.344;2024-03-02T05:29:21;9.10;;;6.70;;
16484;SDS011;8353;47.856;12.344;2024-03-02T05:31:51;11.93;;;9.53;;
16484;SDS011;8353;47.856;12.344;2024-03-02T05:34:22;7.67;;;6.20;;
16484;SDS011;8353;47.856;12.344;2024-03-02T05:36:52;12.13;;;9.73;;
16484;SDS011;8353;47.856;12.344;2024-03-02T05:39:24;15.40;;;11.23;;
16484;SDS011;8353;47.856;12.344;2024-03-02T05:41:55;11.13;;;9.17;;
16484;SDS011;8353;47.856;12.344;2024-03-02T05:44:25;11.20;;;8.50;;
16484;SDS011;8353;47.856;12.344;2024-03-02T05:46:55;8.90;;;6.63;;
16484;SDS011;8353;47.856;12.344;2024-03-02T05:49:25;11.87;;;10.00;;
16484;SDS011;8353;47.856;12.344;2024-03-02T05:51:56;5.90;;;4.57;;
16484;SDS011;8353;47.856;12.344;2024-03-02T05:54:27;5.53;;;4.57;;
16484;SDS011;8353;47.856;12.344;2024-03-02T05:56:58;7.07;;;6.07;;
16484;SDS011;8353;47.856;12.344;2024-03-02T05:59:45;8.30;;;6.60;;
16484;SDS011;8353;47.856;12.344;2024-03-02T06:02:15;10.13;;;7.87;;
16484;SDS011;8353;47.856;12.344;2024-03-02T06:04:45;8.83;;;7.07;;
16484;SDS011;8353;47.856;12.344;2024-03-02T06:07:16;9.60;;;7.57;;
16484;SDS011;8353;47.856;12.344;2024-03-02T06:09:48;9.33;;;7.80;;
16484;SDS011;8353;47.856;12.344;2024-03-02T06:12:19;10.57;;;8.33;;
16484;SDS011;8353;47.856;12.344;2024-03-02T06:14:50;8.57;;;6.93;;
16484;SDS011;8353;47.856;12.344;2024-03-02T06:17:20;9.97;;;8.20;;
16484;SDS011;8353;47.856;12.344;2024-03-02T06:19:50;5.13;;;4.00;;
16484;SDS011;8353;47.856;12.344;2024-03-02T06:22:20;7.10;;;6.17;;
16484;SDS011;8353;47.856;12.344;2024-03-02T06:24:55;6.87;;;5.87;;
16484;SDS011;8353;47.856;12.344;2024-03-02T06:27:25;6.30;;;4.87;;
16484;SDS011;8353;47.856;12.344;2024-03-02T06:29:56;13.03;;;10.13;;
16484;SDS011;8353;47.856;12.344;2024-03-02T06:32:27;6.90;;;5.87;;
16484;SDS011;8353;47.856;12.344;2024-03-02T06:34:58;10.43;;;8.50;;
16484;SDS011;8353;47.856;12.344;2024-03-02T06:37:28;10.67;;;8.80;;
16484;SDS011;8353;47.856;12.344;2024-03-02T06:40:00;11.43;;;8.97;;
16484;SDS011;8353;47.856;12.344;2024-03-02T06:42:30;14.50;;;12.30;;
16484;SDS011;8353;47.856;12.344;2024-03-02T06:45:02;11.60;;;9.87;;
16484;SDS011;8353;47.856;12.344;2024-03-02T06:47:33;8.43;;;7.53;;
16484;SDS011;8353;47.856;12.344;2024-03-02T06:50:03;11.03;;;9.67;;
16484;SDS011;8353;47.856;12.344;2024-03-02T06:52:35;18.33;;;15.07;;
16484;SDS011;8353;47.856;12.344;2024-03-02T06:55:07;14.97;;;13.23;;
16484;SDS011;8353;47.856;12.344;2024-03-02T06:57:38;19.37;;;16.43;;
16484;SDS011;8353;47.856;12.344;2024-03-02T07:00:09;20.30;;;17.77;;
16484;SDS011;8353;47.856;12.344;2024-03-02T07:02:41;17.13;;;15.23;;
16484;SDS011;8353;47.856;12.344;2024-03-02T07:05:17;13.50;;;12.07;;
16484;SDS011;8353;47.856;12.344;2024-03-02T07:07:50;12.10;;;10.80;;
16484;SDS011;8353;47.856;12.344;2024-03-02T07:10:22;14.17;;;11.63;;
16484;SDS011;8353;47.856;12.344;2024-03-02T07:12:52;6.67;;;6.00;;
16484;SDS011;8353;47.856;12.344;2024-03-02T07:15:23;15.23;;;12.87;;
16484;SDS011;8353;47.856;12.344;2024-03-02T07:18:11;13.67;;;11.40;;
16484;SDS011;8353;47.856;12.344;2024-03-02T07:20:42;11.23;;;9.37;;
16484;SDS011;8353;47.856;12.344;2024-03-02T07:23:12;14.03;;;10.80;;
16484;SDS011;8353;47.856;12.344;2024-03-02T07:25:44;13.13;;;10.50;;
16484;SDS011;8353;47.856;12.344;2024-03-02T07:28:14;8.90;;;7.50;;
16484;SDS011;8353;47.856;12.344;2024-03-02T07:30:45;9.13;;;7.00;;
16484;SDS011;8353;47.856;12.344;2024-03-02T07:33:16;17.10;;;12.90;;
16484;SDS011;8353;47.856;12.344;2024-03-02T07:35:46;17.33;;;12.77;;
16484;SDS011;8353;47.856;12.344;2024-03-02T07:38:17;15.03;;;11.37;;
16484;SDS011;8353;47.856;12.344;2024-03-02T07:40:48;9.60;;;8.37;;
16484;SDS011;8353;47.856;12.344;2024-03-02T07:43:19;10.77;;;9.37;;
16484;SDS011;8353;47.856;12.344;2024-03-02T07:45:50;14.63;;;9.80;;
16484;SDS011;8353;47.856;12.344;2024-03-02T07:48:20;14.80;;;9.67;;
16484;SDS011;8353;47.856;12.344;2024-03-02T07:50:50;30.00;;;14.03;;
16484;SDS011;8353;47.856;12.344;2024-03-02T07:53:20;33.83;;;12.03;;
16484;SDS011;8353;47.856;12.344;2024-03-02T07:55:52;11.60;;;8.90;;
16484;SDS011;8353;47.856;12.344;2024-03-02T07:58:23;16.80;;;10.63;;
16484;SDS011;8353;47.856;12.344;2024-03-02T08:00:53;15.90;;;12.13;;
16484;SDS011;8353;47.856;12.344;2024-03-02T08:03:23;13.30;;;10.17;;
16484;SDS011;8353;47.856;12.344;2024-03-02T08:05:53;19.10;;;13.77;;
16484;SDS011;8353;47.856;12.344;2024-03-02T08:08:29;12.20;;;9.03;;
16484;SDS011;8353;47.856;12.344;2024-03-02T08:11:01;15.30;;;12.07;;
16484;SDS011;8353;47.856;12.344;2024-03-02T08:13:31;15.17;;;11.40;;
16484;SDS011;8353;47.856;12.344;2024-03-02T08:16:01;14.53;;;11.10;;
16484;SDS011;8353;47.856;12.344;2024-03-02T08:18:32;18.67;;;14.13;;
16484;SDS011;8353;47.856;12.344;2024-03-02T08:21:03;23.27;;;16.77;;
16484;SDS011;8353;47.856;12.344;2024-03-02T08:23:34;21.23;;;14.37;;
16484;SDS011;8353;47.856;12.344;2024-03-02T08:26:06;25.43;;;18.03;;
16484;SDS011;8353;47.856;12.344;2024-03-02T08:28:37;23.50;;;16.60;;
16484;SDS011;8353;47.856;12.344;2024-03-02T08:31:09;20.47;;;14.60;;
16484;SDS011;8353;47.856;12.344;2024-03-02T08:33:40;19.30;;;14.60;;
16484;SDS011;8353;47.856;12.344;2024-03-02T08:36:10;20.80;;;14.60;;
16484;SDS011;8353;47.856;12.344;2024-03-02T08:38:40;18.73;;;14.20;;
16484;SDS011;8353;47.856;12.344;2024-03-02T08:41:13;17.47;;;13.27;;
16484;SDS011;8353;47.856;12.344;2024-03-02T08:43:44;23.27;;;16.47;;
16484;SDS011;8353;47.856;12.344;2024-03-02T08:46:15;15.83;;;12.20;;
16484;SDS011;8353;47.856;12.344;2024-03-02T08:48:45;22.87;;;17.07;;
16484;SDS011;8353;47.856;12.344;2024-03-02T08:51:16;16.97;;;12.97;;
16484;SDS011;8353;47.856;12.344;2024-03-02T08:53:46;17.63;;;13.90;;
16484;SDS011;8353;47.856;12.344;2024-03-02T08:56:18;23.13;;;16.93;;
16484;SDS011;8353;47.856;12.344;2024-03-02T08:58:50;22.50;;;16.60;;
16484;SDS011;8353;47.856;12.344;2024-03-02T09:01:21;23.73;;;17.20;;
16484;SDS011;8353;47.856;12.344;2024-03-02T09:03:51;14.60;;;11.17;;
16484;SDS011;8353;47.856;12.344;2024-03-02T09:06:22;21.57;;;15.83;;
16484;SDS011;8353;47.856;12.344;2024-03-02T09:08:52;24.17;;;17.43;;
16484;SDS011;8353;47.856;12.344;2024-03-02T09:11:23;16.73;;;12.27;;
16484;SDS011;8353;47.856;12.344;2024-03-02T09:13:54;19.33;;;15.17;;
16484;SDS011;8353;47.856;12.344;2024-03-02T09:16:26;23.13;;;16.17;;
16484;SDS011;8353;47.856;12.344;2024-03-02T09:18:59;22.33;;;15.43;;
16484;SDS011;8353;47.856;12.344;2024-03-02T09:21:29;14.00;;;11.03;;
16484;SDS011;8353;47.856;12.344;2024-03-02T09:24:00;13.30;;;10.03;;
16484;SDS011;8353;47.856;12.344;2024-03-02T09:26:32;16.00;;;11.17;;
16484;SDS011;8353;47.856;12.344;2024-03-02T09:29:02;19.63;;;14.03;;
16484;SDS011;8353;47.856;12.344;2024-03-02T09:31:33;17.50;;;10.83;;
16484;SDS011;8353;47.856;12.344;2024-03-02T09:34:08;16.53;;;11.83;;
16484;SDS011;8353;47.856;12.344;2024-03-02T09:36:39;14.53;;;11.73;;
16484;SDS011;8353;47.856;12.344;2024-03-02T09:39:09;17.77;;;11.27;;
16484;SDS011;8353;47.856;12.344;2024-03-02T09:41:41;13.10;;;9.53;;
16484;SDS011;8353;47.856;12.344;2024-03-02T09:44:12;14.47;;;11.13;;
16484;SDS011;8353;47.856;12.344;2024-03-02T09:46:43;11.67;;;9.23;;
16484;SDS011;8353;47.856;12.344;2024-03-02T09:49:15;16.17;;;11.03;;
16484;SDS011;8353;47.856;12.344;2024-03-02T09:51:46;9.97;;;7.77;;
16484;SDS011;8353;47.856;12.344;2024-03-02T09:54:17;11.50;;;9.23;;
16484;SDS011;8353;47.856;12.344;2024-03-02T09:56:49;16.37;;;12.10;;
16484;SDS011;8353;47.856;12.344;2024-03-02T09:59:20;9.67;;;7.63;;
16484;SDS011;8353;47.856;12.344;2024-03-02T10:01:55;14.93;;;11.73;;
16484;SDS011;8353;47.856;12.344;2024-03-02T10:04:27;16.90;;;11.37;;
16484;SDS011;8353;47.856;12.344;2024-03-02T10:07:09;16.60;;;11.53;;
16484;SDS011;8353;47.856;12.344;2024-03-02T10:09:41;16.63;;;12.53;;
16484;SDS011;8353;47.856;12.344;2024-03-02T10:12:16;14.40;;;10.37;;
16484;SDS011;8353;47.856;12.344;2024-03-02T10:14:47;10.17;;;7.30;;
16484;SDS011;8353;47.856;12.344;2024-03-02T10:17:19;14.10;;;9.80;;
16484;SDS011;8353;47.856;12.344;2024-03-02T10:19:50;15.97;;;11.37;;
16484;SDS011;8353;47.856;12.344;2024-03-02T10:22:20;17.07;;;11.27;;
16484;SDS011;8353;47.856;12.344;2024-03-02T10:24:53;12.00;;;9.70;;
16484;SDS011;8353;47.856;12.344;2024-03-02T10:27:26;15.20;;;10.00;;
16484;SDS011;8353;47.856;12.344;2024-03-02T10:29:58;9.03;;;7.57;;
16484;SDS011;8353;47.856;12.344;2024-03-02T10:32:28;8.77;;;6.80;;
16484;SDS011;8353;47.856;12.344;2024-03-02T10:34:59;13.43;;;9.20;;
16484;SDS011;8353;47.856;12.344;2024-03-02T10:37:29;10.35;;;8.65;;
16484;SDS011;8353;47.856;12.344;2024-03-02T10:40:04;10.23;;;7.50;;
16484;SDS011;8353;47.856;12.344;2024-03-02T10:42:36;13.77;;;10.30;;
16484;SDS011;8353;47.856;12.344;2024-03-02T10:45:08;11.83;;;8.83;;
16484;SDS011;8353;47.856;12.344;2024-03-02T10:47:39;13.30;;;9.20;;
16484;SDS011;8353;47.856;12.344;2024-03-02T10:50:11;8.45;;;6.10;;
16484;SDS011;8353;47.856;12.344;2024-03-02T10:52:42;8.13;;;6.82;;
16484;SDS011;8353;47.856;12.344;2024-03-02T10:55:12;6.95;;;5.00;;
16484;SDS011;8353;47.856;12.344;2024-03-02T10:57:52;12.45;;;9.95;;
16484;SDS011;8353;47.856;12.344;2024-03-02T11:00:25;13.80;;;10.05;;
16484;SDS011;8353;47.856;12.344;2024-03-02T11:03:05;14.70;;;10.73;;
16484;SDS011;8353;47.856;12.344;2024-03-02T11:05:38;13.60;;;10.18;;
16484;SDS011;8353;47.856;12.344;2024-03-02T11:08:13;12.20;;;9.88;;
16484;SDS011;8353;47.856;12.344;2024-03-02T11:10:48;12.85;;;10.05;;
16484;SDS011;8353;47.856;12.344;2024-03-02T11:13:24;11.70;;;7.27;;
16484;SDS011;8353;47.856;12.344;2024-03-02T11:16:08;10.32;;;8.55;;
16484;SDS011;8353;47.856;12.344;2024-03-02T11:18:45;9.23;;;7.93;;
16484;SDS011;8353;47.856;12.344;2024-03-02T11:21:17;10.35;;;7.63;;
16484;SDS011;8353;47.856;12.344;2024-03-02T11:23:48;10.18;;;7.70;;
16484;SDS011;8353;47.856;12.344;2024-03-02T11:26:19;9.77;;;7.68;;
16484;SDS011;8353;47.856;12.344;2024-03-02T11:28:52;6.95;;;5.68;;
16484;SDS011;8353;47.856;12.344;2024-03-02T11:34:28;10.17;;;7.40;;
16484;SDS011;8353;47.856;12.344;2024-03-02T11:36:59;8.45;;;6.55;;
16484;SDS011;8353;47.856;12.344;2024-03-02T11:39:30;12.67;;;9.63;;
16484;SDS011;8353;47.856;12.344;2024-03-02T11:42:02;9.40;;;7.93;;
16484;SDS011;8353;47.856;12.344;2024-03-02T11:44:34;12.20;;;9.25;;
16484;SDS011;8353;47.856;12.344;2024-03-02T11:47:05;8.83;;;7.73;;
16484;SDS011;8353;47.856;12.344;2024-03-02T11:49:37;6.22;;;5.10;;
16484;SDS011;8353;47.856;12.344;2024-03-02T11:52:09;8.35;;;7.53;;
16484;SDS011;8353;47.856;12.344;2024-03-02T11:54:40;9.75;;;7.97;;
16484;SDS011;8353;47.856;12.344;2024-03-02T11:57:15;5.43;;;4.93;;
16484;SDS011;8353;47.856;12.344;2024-03-02T11:59:48;5.75;;;4.63;;
16484;SDS011;8353;47.856;12.344;2024-03-02T12:02:20;10.57;;;8.80;;
16484;SDS011;8353;47.856;12.344;2024-03-02T12:04:51;9.65;;;8.00;;
16484;SDS011;8353;47.856;12.344;2024-03-02T12:07:21;10.00;;;8.70;;
16484;SDS011;8353;47.856;12.344;2024-03-02T12:09:59;7.80;;;6.40;;
16484;SDS011;8353;47.856;12.344;2024-03-02T12:12:31;10.40;;;8.68;;
16484;SDS011;8353;47.856;12.344;2024-03-02T12:15:03;9.52;;;8.52;;
16484;SDS011;8353;47.856;12.344;2024-03-02T12:17:35;6.78;;;5.55;;
16484;SDS011;8353;47.856;12.344;2024-03-02T12:20:06;7.75;;;6.82;;
16484;SDS011;8353;47.856;12.344;2024-03-02T12:22:41;9.57;;;6.85;;
16484;SDS011;8353;47.856;12.344;2024-03-02T12:25:11;9.05;;;6.60;;
16484;SDS011;8353;47.856;12.344;2024-03-02T12:27:42;11.15;;;8.05;;
16484;SDS011;8353;47.856;12.344;2024-03-02T12:30:16;9.43;;;7.20;;
16484;SDS011;8353;47.856;12.344;2024-03-02T12:32:46;12.00;;;8.00;;
16484;SDS011;8353;47.856;12.344;2024-03-02T12:35:17;9.05;;;6.20;;
16484;SDS011;8353;47.856;12.344;2024-03-02T12:37:48;9.10;;;6.90;;
16484;SDS011;8353;47.856;12.344;2024-03-02T12:40:20;8.15;;;7.30;;
16484;SDS011;8353;47.856;12.344;2024-03-02T12:42:51;8.60;;;6.45;;
16484;SDS011;8353;47.856;12.344;2024-03-02T12:45:23;9.52;;;6.50;;
16484;SDS011;8353;47.856;12.344;2024-03-02T12:47:53;7.15;;;6.05;;
16484;SDS011;8353;47.856;12.344;2024-03-02T12:50:24;7.50;;;6.00;;
16484;SDS011;8353;47.856;12.344;2024-03-02T12:52:56;8.50;;;6.93;;
16484;SDS011;8353;47.856;12.344;2024-03-02T12:55:26;6.45;;;5.35;;
16484;SDS011;8353;47.856;12.344;2024-03-02T12:57:57;7.75;;;6.47;;
16484;SDS011;8353;47.856;12.344;2024-03-02T13:00:29;11.70;;;7.88;;
16484;SDS011;8353;47.856;12.344;2024-03-02T13:03:03;8.13;;;6.70;;
16484;SDS011;8353;47.856;12.344;2024-03-02T13:05:34;8.73;;;7.82;;
16484;SDS011;8353;47.856;12.344;2024-03-02T13:08:04;10.23;;;8.18;;
16484;SDS011;8353;47.856;12.344;2024-03-02T13:10:36;8.90;;;6.50;;
16484;SDS011;8353;47.856;12.344;2024-03-02T13:13:10;9.48;;;8.45;;
16484;SDS011;8353;47.856;12.344;2024-03-02T13:15:41;11.77;;;9.13;;
16484;SDS011;8353;47.856;12.344;2024-03-02T13:18:12;9.82;;;7.85;;
16484;SDS011;8353;47.856;12.344;2024-03-02T13:20:42;6.13;;;5.15;;
16484;SDS011;8353;47.856;12.344;2024-03-02T13:23:13;7.78;;;6.88;;
16484;SDS011;8353;47.856;12.344;2024-03-02T13:25:43;6.78;;;5.57;;
16484;SDS011;8353;47.856;12.344;2024-03-02T13:28:16;7.38;;;6.63;;
16484;SDS011;8353;47.856;12.344;2024-03-02T13:30:48;6.57;;;5.88;;
16484;SDS011;8353;47.856;12.344;2024-03-02T13:33:18;8.48;;;7.35;;
16484;SDS011;8353;47.856;12.344;2024-03-02T13:35:51;7.63;;;6.75;;
16484;SDS011;8353;47.856;12.344;2024-03-02T13:38:22;8.60;;;7.13;;
16484;SDS011;8353;47.856;12.344;2024-03-02T13:40:55;5.65;;;5.03;;
16484;SDS011;8353;47.856;12.344;2024-03-02T13:43:25;10.32;;;7.00;;
16484;SDS011;8353;47.856;12.344;2024-03-02T13:45:57;6.78;;;6.05;;
16484;SDS011;8353;47.856;12.344;2024-03-02T13:48:27;8.05;;;6.55;;
16484;SDS011;8353;47.856;12.344;2024-03-02T13:50:59;6.57;;;5.38;;
16484;SDS011;8353;47.856;12.344;2024-03-02T13:53:30;6.35;;;5.50;;
16484;SDS011;8353;47.856;12.344;2024-03-02T13:56:01;6.15;;;5.10;;
16484;SDS011;8353;47.856;12.344;2024-03-02T13:58:32;7.20;;;6.50;;
16484;SDS011;8353;47.856;12.344;2024-03-02T14:01:03;8.23;;;6.82;;
16484;SDS011;8353;47.856;12.344;2024-03-02T14:03:34;8.15;;;5.90;;
16484;SDS011;8353;47.856;12.344;2024-03-02T14:06:05;7.25;;;5.95;;
16484;SDS011;8353;47.856;12.344;2024-03-02T14:08:36;6.15;;;4.72;;
16484;SDS011;8353;47.856;12.344;2024-03-02T14:11:11;5.80;;;5.20;;
16484;SDS011;8353;47.856;12.344;2024-03-02T14:13:44;8.55;;;6.93;;
16484;SDS011;8353;47.856;12.344;2024-03-02T14:16:19;9.20;;;6.20;;
16484;SDS011;8353;47.856;12.344;2024-03-02T14:18:49;7.07;;;6.32;;
16484;SDS011;8353;47.856;12.344;2024-03-02T14:21:20;6.85;;;6.13;;
16484;SDS011;8353;47.856;12.344;2024-03-02T14:23:51;5.78;;;4.35;;
16484;SDS011;8353;47.856;12.344;2024-03-02T14:26:21;6.60;;;5.82;;
16484;SDS011;8353;47.856;12.344;2024-03-02T14:28:51;7.72;;;6.80;;
16484;SDS011;8353;47.856;12.344;2024-03-02T14:31:22;6.85;;;6.18;;
16484;SDS011;8353;47.856;12.344;2024-03-02T14:33:53;9.68;;;7.65;;
16484;SDS011;8353;47.856;12.344;2024-03-02T14:36:23;11.98;;;7.72;;
16484;SDS011;8353;47.856;12.344;2024-03-02T14:38:54;7.43;;;6.50;;
16484;SDS011;8353;47.856;12.344;2024-03-02T14:41:25;5.22;;;4.15;;
16484;SDS011;8353;47.856;12.344;2024-03-02T14:43:56;7.45;;;6.63;;
16484;SDS011;8353;47.856;12.344;2024-03-02T14:46:28;9.27;;;7.80;;
16484;SDS011;8353;47.856;12.344;2024-03-02T14:48:59;8.88;;;6.78;;
16484;SDS011;8353;47.856;12.344;2024-03-02T14:51:29;12.75;;;10.32;;
16484;SDS011;8353;47.856;12.344;2024-03-02T14:54:00;6.25;;;5.30;;
16484;SDS011;8353;47.856;12.344;2024-03-02T14:56:32;10.90;;;8.98;;
16484;SDS011;8353;47.856;12.344;2024-03-02T14:59:02;10.35;;;8.45;;
16484;SDS011;8353;47.856;12.344;2024-03-02T15:01:34;13.50;;;10.32;;